EKKA/KRP METAR and TAF weather

Enter ICAO airport designator
Station Type Date Time Source
EKKA METAR 2020/01/20 12:50 UTC NOAA

EKKA 201250Z AUTO 26014KT 9999 OVC014/// 08/05 Q1038 TEMPO BKN015


Station Type Date Time Source
EKKA Decoded METAR 2020/01/20 12:50 UTC NOAA

Karup, Denmark (EKKA) 56-18N 009-07E 53M
Jan 20, 2020 - 07:50 AM EST / 2020.01.20 1250 UTC
Wind: from the W (260 degrees) at 16 MPH (14 KT):0
Visibility: greater than 7 mile(s):0
Sky conditions: overcast
Temperature: 46 F (8 C)
Dew Point: 41 F (5 C)
Relative Humidity: 81%
Pressure (altimeter): 30.65 in. Hg (1038 hPa)
ob: EKKA 201250Z AUTO 26014KT 9999 OVC014/// 08/05 Q1038 TEMPO BKN015
cycle: 13

Station Type Date Time Source
EKKA TAF 2020/01/20 12:31 UTC NOAA

TAF EKKA 201116Z 2012/2112 26012KT 9999 BKN015
TEMPO 2012/2021 BKN010
TEMPO 2021/2110 26012G25KT 7000 BKN008
BECMG 2110/2112 26012G25KT 4000 -RADZ BKN004

Example: see airport list